Atlanta, MI

4:24 PM EDT on August 01, 2015 (GMT -0400)
Moon Lake | | Change Station
CLOSE
Current Station
Personal Weather Station
Location: Lewiston, MI
Elevation: 1240 ft
Nearby Weather Stations

Elev 1240 ft 44.84 °N, 84.26 °W | Updated 14 minutes ago

Mostly Cloudy
Mostly Cloudy
78.8 °F
Feels Like 79 °F
N
1.1
Wind Variable Wind from NW
Gusts 1.1 mph

Today
High -- | Low -- °F
--% Chance of Precip.
Yesterday
High -- | Low -- °F
Precip. -- in
6:21 AM 9:03 PM
Full, 97% visible
Pressure 29.86 in
Visibility 10.0 miles
Clouds Few 5000 ft
Heat Index 79 °F
Dew Point 55 °F
Humidity 44%
Rainfall 0.00 in
Snow Depth Not available.
UV 8 out of 12
Pollen 6.50 out of 12
Air Quality Not available.
Flu Activity Not available.
METAR KGLR 011953Z AUTO 27012G19KT 10SM FEW050 24/09 A2987 RMK AO2 SLP110 T02440094

More Conditions Fewer Conditions

Pressure 29.86 in
Visibility 10.0 miles
Clouds Few 5000 ft
Heat Index 79 °F
Dew Point 55 °F
Humidity 44%
Rainfall 0.00 in
Snow Depth Not available.
UV 8 out of 12
Pollen 6.50 out of 12
Air Quality Not available.
Flu Activity Not available.
METAR KGLR 011953Z AUTO 27012G19KT 10SM FEW050 24/09 A2987 RMK AO2 SLP110 T02440094

More Conditions Fewer Conditions

Nowcast | as of 3:00 PM EDT on August 1, 2015

At 4 PM...partly cloudy. Isolated thunderstorms. Temperature 78. West winds 9 mph. At 6 PM...partly cloudy. Temperature 77. West winds 9 mph. At 8 PM...partly cloudy. Temperature 73. West winds 6 mph. At 10 PM...mostly clear. Temperature 64. Light winds.

×

10-Day Weather Forecast

×

Almanac

Astronomy

Aug. 01, 2015 Rise Set
Actual Time
Civil Twilight
Nautical Twilight
Astronomical Twilight
Moon
Length of Visible Light
Length of Day
Tomorrow will be .
, % of the Moon is Illuminated

Today's Extremes

State Highs State Lows

Community

WunderPhotos

Upload Photos

1,843,050 photos uploaded!

WunderBlogs® & News

Nearby

Air Quality

  Air Quality AQ Index Pollutant
Not available.

Snow Depth

Station Depth Elevation

Earthquake Activity

City Distance Mag. Time & Date
Minimum magnitude displayed is 2.5.

Coastal Water Temperatures

Place Temperature

Stations

Nearby Weather Stations

Station Location Temp. Windchill Dew Point Humidity Wind Precip. Elev Updated Type